Time;durP1;ratioP1;P1;durP2;ratioP2;P2;SDS_P1;SDS_P2;PMS_P1;PMS_P2;Temp;Humidity;BMP_temperature;BMP_pressure;BME280_temperature;BME280_humidity;BME280_pressure;Samples;Min_cycle;Max_cycle;Signal;HPM_P1;HPM_P2
2023/03/31 00:05:36;;;;;;;13.13;8.65;;;16.00;84.60;;;;;;10749570;33;20020;-73
2023/03/31 00:11:39;;;;;;;7.62;6.12;;;16.00;84.60;;;;;;10752632;33;20452;-73
2023/03/31 00:17:42;;;;;;;14.18;10.10;;;16.00;84.20;;;;;;10755176;33;20020;-74
2023/03/31 00:23:45;;;;;;;11.20;8.18;;;16.00;84.10;;;;;;10757534;33;20028;-74
2023/03/31 00:29:49;;;;;;;8.57;6.40;;;15.90;83.70;;;;;;10757330;33;20028;-74
2023/03/31 00:35:52;;;;;;;12.93;9.07;;;15.80;83.50;;;;;;10757257;33;20028;-74
2023/03/31 00:41:55;;;;;;;11.93;8.77;;;15.80;83.30;;;;;;10756535;33;20017;-74
2023/03/31 00:48:04;;;;;;;11.32;6.90;;;15.70;83.70;;;;;;10756415;33;20020;-74
2023/03/31 00:54:10;;;;;;;6.57;5.25;;;15.70;83.70;;;;;;10755673;33;20029;-73
2023/03/31 01:00:17;;;;;;;7.62;5.55;;;15.30;83.70;;;;;;10756657;33;20055;-74
2023/03/31 01:06:20;;;;;;;9.27;6.57;;;15.10;84.10;;;;;;10756908;33;20048;-74
2023/03/31 01:12:23;;;;;;;9.15;6.85;;;15.20;84.10;;;;;;10756069;33;20359;-73
2023/03/31 01:18:26;;;;;;;8.80;5.72;;;15.30;83.50;;;;;;10753913;33;20354;-74
2023/03/31 01:24:46;;;;;;;9.88;6.72;;;15.40;83.20;;;;;;10754904;33;20029;-74
2023/03/31 01:31:19;;;;;;;9.48;5.87;;;15.40;83.00;;;;;;10756295;33;20047;-73
2023/03/31 01:37:40;;;;;;;7.75;5.75;;;15.30;82.80;;;;;;10755523;33;20016;-73
2023/03/31 01:44:01;;;;;;;8.05;6.25;;;15.20;83.20;;;;;;10755188;33;20025;-73
2023/03/31 01:50:15;;;;;;;9.10;6.20;;;15.20;83.30;;;;;;10749754;32;20063;-73
2023/03/31 01:56:38;;;;;;;12.90;10.45;;;15.10;83.40;;;;;;10754117;33;20056;-73
2023/03/31 02:03:11;;;;;;;15.02;8.52;;;15.30;83.20;;;;;;10752239;33;20055;-74
2023/03/31 02:09:19;;;;;;;7.65;6.18;;;15.30;82.90;;;;;;10754614;33;20025;-73
2023/03/31 02:15:27;;;;;;;10.20;6.95;;;15.40;82.80;;;;;;10749942;33;20029;-73
2023/03/31 02:21:32;;;;;;;11.12;9.32;;;15.20;83.00;;;;;;10754187;33;20021;-73
2023/03/31 02:27:48;;;;;;;8.80;6.85;;;15.20;83.30;;;;;;10753269;33;20055;-73
2023/03/31 02:33:51;;;;;;;8.00;5.68;;;15.30;83.10;;;;;;10751203;33;20094;-74
2023/03/31 02:39:55;;;;;;;7.05;4.85;;;15.20;83.00;;;;;;10751988;32;20030;-73
2023/03/31 02:45:57;;;;;;;9.73;6.37;;;15.00;83.20;;;;;;10752872;33;20025;-73
2023/03/31 02:52:26;;;;;;;8.50;6.47;;;15.00;83.40;;;;;;10752522;33;20338;-74
2023/03/31 02:59:07;;;;;;;10.55;6.82;;;15.20;83.10;;;;;;10752868;33;20017;-74
2023/03/31 03:05:22;;;;;;;7.10;5.20;;;15.30;83.00;;;;;;10864281;32;20036;-74
2023/03/31 03:11:37;;;;;;;9.15;6.93;;;15.20;83.00;;;;;;10863604;32;20054;-75
2023/03/31 03:17:45;;;;;;;7.68;6.53;;;15.30;83.00;;;;;;10864378;32;20051;-74
2023/03/31 03:23:47;;;;;;;6.78;4.80;;;15.30;83.00;;;;;;10863670;32;20360;-75
2023/03/31 03:29:50;;;;;;;7.60;4.80;;;15.20;83.10;;;;;;10864035;32;20024;-74
2023/03/31 03:35:52;;;;;;;9.63;4.93;;;14.90;83.30;;;;;;10862655;32;20279;-74
2023/03/31 03:41:54;;;;;;;9.00;7.00;;;14.70;83.50;;;;;;10767791;32;20051;-74
2023/03/31 03:47:56;;;;;;;13.15;7.03;;;14.80;83.70;;;;;;10751079;33;20024;-74
2023/03/31 03:53:58;;;;;;;7.40;5.25;;;15.10;83.60;;;;;;10750892;33;20029;-74
2023/03/31 04:00:00;;;;;;;9.68;7.50;;;15.30;83.10;;;;;;10751405;33;20052;-74
2023/03/31 04:06:02;;;;;;;14.68;9.88;;;15.20;83.10;;;;;;10749882;33;20444;-75
2023/03/31 04:12:04;;;;;;;13.73;11.43;;;15.20;83.40;;;;;;10751617;33;20029;-74
2023/03/31 04:18:09;;;;;;;13.80;10.23;;;15.40;83.30;;;;;;10751527;33;20025;-74
2023/03/31 04:24:14;;;;;;;14.77;11.27;;;15.70;82.90;;;;;;10747501;33;20029;-74
2023/03/31 04:30:23;;;;;;;10.30;7.40;;;15.70;82.60;;;;;;10750705;33;20047;-74
2023/03/31 04:36:25;;;;;;;12.70;8.67;;;15.70;82.50;;;;;;10746804;33;20390;-74
2023/03/31 04:42:27;;;;;;;11.27;8.60;;;15.80;82.70;;;;;;10748521;33;20307;-74
2023/03/31 04:48:29;;;;;;;9.15;6.32;;;15.80;82.50;;;;;;10750205;33;20046;-74
2023/03/31 04:54:32;;;;;;;8.65;6.87;;;15.70;82.50;;;;;;10749557;33;20345;-74
2023/03/31 05:00:34;;;;;;;11.43;8.10;;;15.70;82.70;;;;;;10752122;33;20338;-74
2023/03/31 05:06:36;;;;;;;11.02;7.87;;;15.80;82.60;;;;;;10754378;33;20383;-74
2023/03/31 05:12:38;;;;;;;9.80;6.85;;;15.70;82.90;;;;;;10756191;33;20070;-75
2023/03/31 05:18:41;;;;;;;9.45;6.80;;;15.90;83.20;;;;;;10755853;33;20052;-74
2023/03/31 05:24:43;;;;;;;13.88;9.57;;;16.00;83.20;;;;;;10755802;33;20020;-74
2023/03/31 05:30:45;;;;;;;16.70;11.10;;;16.20;83.60;;;;;;10754298;33;20033;-74
2023/03/31 05:36:49;;;;;;;10.48;7.35;;;16.30;83.50;;;;;;10754647;33;20385;-74
2023/03/31 05:42:51;;;;;;;11.50;7.53;;;16.30;83.50;;;;;;10751233;33;20070;-74
2023/03/31 05:48:55;;;;;;;14.23;10.98;;;16.40;83.90;;;;;;10755374;33;20032;-75
2023/03/31 05:54:57;;;;;;;15.80;10.82;;;16.40;83.90;;;;;;10754666;33;20064;-75
2023/03/31 06:01:07;;;;;;;13.05;9.77;;;16.40;84.20;;;;;;10744767;32;20422;-75
2023/03/31 06:07:10;;;;;;;13.73;9.57;;;16.50;84.50;;;;;;10754819;33;20017;-75
2023/03/31 06:13:12;;;;;;;25.85;12.73;;;16.60;84.50;;;;;;10750188;33;20029;-75
2023/03/31 06:19:14;;;;;;;19.33;10.73;;;16.70;84.20;;;;;;10751431;33;20024;-75
2023/03/31 06:25:16;;;;;;;17.73;10.45;;;16.70;84.20;;;;;;10752924;33;20024;-75
2023/03/31 06:31:22;;;;;;;12.32;8.98;;;16.50;84.00;;;;;;10754622;33;20322;-75
2023/03/31 06:37:24;;;;;;;17.20;9.30;;;16.10;84.20;;;;;;10754494;33;20417;-75
2023/03/31 06:43:27;;;;;;;26.05;12.90;;;16.20;84.30;;;;;;10753634;33;20418;-75
2023/03/31 06:49:29;;;;;;;14.87;9.48;;;16.30;84.30;;;;;;10752724;33;20032;-75
2023/03/31 06:55:32;;;;;;;16.08;9.80;;;16.30;84.10;;;;;;10753363;33;20399;-75
2023/03/31 07:01:37;;;;;;;16.87;11.55;;;16.50;84.50;;;;;;10751452;33;20025;-75
2023/03/31 07:07:40;;;;;;;21.52;13.30;;;16.50;84.20;;;;;;10750729;33;20066;-75
2023/03/31 07:13:42;;;;;;;14.75;10.70;;;16.20;84.50;;;;;;10752401;33;20066;-75
2023/03/31 07:19:46;;;;;;;20.98;10.90;;;16.10;84.30;;;;;;10751995;33;20331;-75
2023/03/31 07:25:49;;;;;;;16.62;9.07;;;16.00;84.70;;;;;;10750070;33;20032;-75
2023/03/31 07:31:51;;;;;;;17.33;9.85;;;16.00;84.70;;;;;;10750239;33;20417;-75
2023/03/31 07:37:54;;;;;;;17.42;10.43;;;16.10;85.30;;;;;;10748692;33;20054;-75
2023/03/31 07:43:56;;;;;;;12.60;8.35;;;16.20;85.30;;;;;;10751524;33;20017;-75
2023/03/31 07:49:58;;;;;;;17.42;11.63;;;16.30;85.10;;;;;;10765947;27;20036;-75
2023/03/31 07:56:01;;;;;;;16.05;11.30;;;16.40;85.20;;;;;;10825235;33;20291;-75
2023/03/31 08:02:16;;;;;;;13.57;9.20;;;16.40;84.90;;;;;;10824968;33;20016;-76
2023/03/31 08:08:19;;;;;;;21.95;17.23;;;16.30;85.10;;;;;;10822980;33;20028;-76
2023/03/31 08:14:22;;;;;;;13.52;11.07;;;16.40;85.30;;;;;;10823760;33;20082;-76
2023/03/31 08:20:24;;;;;;;20.45;13.70;;;16.10;85.20;;;;;;10810779;32;20032;-76
2023/03/31 08:26:26;;;;;;;17.60;11.40;;;16.00;85.10;;;;;;10823566;33;20046;-76
2023/03/31 08:32:29;;;;;;;14.38;12.30;;;15.90;85.80;;;;;;10820931;32;20036;-76
2023/03/31 08:38:31;;;;;;;17.52;11.48;;;16.10;86.00;;;;;;10824757;33;20056;-76
2023/03/31 08:44:43;;;;;;;17.25;9.75;;;16.00;86.00;;;;;;10827434;33;20054;-75
2023/03/31 08:50:52;;;;;;;16.42;11.27;;;16.00;85.90;;;;;;10826484;33;20443;-76
2023/03/31 08:56:56;;;;;;;15.73;11.40;;;16.00;85.50;;;;;;10830046;33;20374;-76
2023/03/31 09:03:09;;;;;;;16.98;10.50;;;16.10;85.70;;;;;;10825106;33;20028;-75
2023/03/31 09:09:24;;;;;;;12.43;8.32;;;16.20;85.20;;;;;;10825281;33;20070;-76
2023/03/31 09:15:38;;;;;;;15.93;9.57;;;16.30;85.10;;;;;;10826299;33;20054;-76
2023/03/31 09:21:50;;;;;;;15.65;11.30;;;16.30;85.20;;;;;;10826958;33;20027;-76
2023/03/31 09:27:57;;;;;;;18.45;12.95;;;16.40;85.10;;;;;;10826025;33;20406;-76
2023/03/31 09:34:00;;;;;;;19.40;11.00;;;16.50;85.40;;;;;;10827449;33;20028;-76
2023/03/31 09:40:06;;;;;;;22.20;13.18;;;16.70;85.80;;;;;;10827259;33;20004;-76
2023/03/31 09:46:44;;;;;;;20.62;14.13;;;16.70;85.60;;;;;;10825670;32;20337;-76
2023/03/31 09:52:57;;;;;;;12.75;9.80;;;16.80;85.80;;;;;;10710408;32;20037;-76
2023/03/31 09:59:03;;;;;;;19.05;12.77;;;16.80;85.70;;;;;;10713762;32;20037;-76
2023/03/31 10:05:07;;;;;;;22.85;14.60;;;16.50;85.60;;;;;;10709809;32;20472;-75
2023/03/31 10:11:10;;;;;;;28.85;11.68;;;16.20;86.00;;;;;;10712716;33;20040;-76
2023/03/31 10:17:15;;;;;;;14.20;9.90;;;16.20;86.10;;;;;;10712703;33;20025;-76
2023/03/31 10:23:31;;;;;;;13.20;10.27;;;16.30;86.00;;;;;;10700933;33;20350;-76
2023/03/31 10:29:33;;;;;;;17.70;13.95;;;16.50;85.70;;;;;;10777822;33;20024;-76
2023/03/31 10:35:36;;;;;;;19.62;12.63;;;16.60;85.60;;;;;;10788901;33;20032;-76
2023/03/31 10:41:38;;;;;;;32.03;24.98;;;16.60;85.40;;;;;;10790397;33;20017;-76
2023/03/31 10:47:41;;;;;;;27.15;20.48;;;16.60;85.70;;;;;;10789295;33;20016;-76
2023/03/31 10:53:51;;;;;;;21.95;14.25;;;16.70;85.80;;;;;;10791327;33;20025;-76
2023/03/31 11:00:20;;;;;;;25.62;17.87;;;16.80;85.70;;;;;;10821764;32;20051;-76
2023/03/31 11:06:45;;;;;;;32.85;17.55;;;16.90;85.60;;;;;;10823807;32;20051;-76
2023/03/31 11:12:50;;;;;;;20.92;14.57;;;17.10;85.80;;;;;;10824966;33;20036;-76
2023/03/31 11:19:11;;;;;;;23.58;16.90;;;17.20;85.60;;;;;;10822017;33;20020;-76
2023/03/31 11:25:26;;;;;;;23.58;15.70;;;17.10;85.30;;;;;;10825752;33;20279;-76
2023/03/31 11:31:39;;;;;;;20.10;13.93;;;17.10;85.40;;;;;;10823379;33;20035;-75
2023/03/31 11:37:49;;;;;;;24.50;15.77;;;17.00;85.20;;;;;;10826304;33;20425;-76
2023/03/31 11:43:56;;;;;;;28.35;21.08;;;17.10;85.30;;;;;;10809573;33;20493;-76
2023/03/31 11:50:03;;;;;;;19.23;14.43;;;17.20;85.20;;;;;;10821209;33;20069;-76
2023/03/31 11:56:08;;;;;;;34.97;28.50;;;17.30;84.80;;;;;;10822275;33;20020;-76
2023/03/31 12:09:09;;;;;;;33.67;28.02;;;17.70;84.30;;;;;;10827674;32;20024;-76
2023/03/31 12:15:43;;;;;;;27.80;21.50;;;18.00;84.50;;;;;;10829942;33;20058;-76
2023/03/31 12:22:05;;;;;;;41.47;28.38;;;18.00;84.20;;;;;;10827287;33;20055;-75
2023/03/31 12:28:09;;;;;;;34.90;21.92;;;18.10;83.70;;;;;;10828812;33;20032;-76
2023/03/31 12:34:18;;;;;;;37.50;27.48;;;18.10;84.10;;;;;;10828975;33;20341;-75
2023/03/31 12:40:30;;;;;;;;;;;18.20;83.20;;;;;;10830434;33;20028;-76
2023/03/31 12:46:37;;;;;;;14.35;11.68;;;18.20;83.50;;;;;;10827427;33;20038;-75
2023/03/31 12:52:42;;;;;;;18.27;14.90;;;18.30;82.70;;;;;;10826759;33;20024;-75
2023/03/31 12:58:45;;;;;;;13.80;11.57;;;18.30;82.50;;;;;;10828604;33;20024;-75
2023/03/31 13:04:49;;;;;;;17.67;11.20;;;18.20;82.70;;;;;;10825225;32;20118;-75
2023/03/31 13:10:51;;;;;;;18.02;11.73;;;18.20;83.00;;;;;;10843345;32;20027;-75
2023/03/31 13:17:30;;;;;;;14.98;9.23;;;18.20;83.00;;;;;;10828886;33;20386;-75
2023/03/31 13:23:36;;;;;;;14.15;10.07;;;18.20;83.30;;;;;;10826617;33;20384;-75
2023/03/31 13:29:41;;;;;;;11.32;8.50;;;18.30;83.80;;;;;;10827877;33;20024;-75
2023/03/31 13:36:04;;;;;;;16.75;10.50;;;18.20;83.80;;;;;;10828878;33;20024;-75
2023/03/31 13:42:28;;;;;;;12.25;10.20;;;18.20;83.90;;;;;;10828323;33;20054;-75
2023/03/31 13:48:55;;;;;;;10.68;9.13;;;18.20;83.90;;;;;;10828044;33;20024;-75
2023/03/31 13:55:35;;;;;;;11.70;8.73;;;18.10;83.80;;;;;;10823290;33;20027;-76
2023/03/31 14:01:59;;;;;;;11.45;8.02;;;17.80;83.90;;;;;;10828454;33;20046;-76
2023/03/31 14:08:30;;;;;;;11.35;8.48;;;18.00;84.60;;;;;;10833772;32;20418;-76
2023/03/31 14:14:32;;;;;;;13.80;12.23;;;18.20;84.40;;;;;;10827962;33;20051;-75
2023/03/31 14:20:35;;;;;;;10.95;7.85;;;18.20;84.50;;;;;;10821901;33;20019;-75
2023/03/31 14:27:05;;;;;;;17.83;11.18;;;18.30;84.40;;;;;;10824449;33;20034;-76
2023/03/31 14:33:16;;;;;;;14.65;8.25;;;18.20;83.90;;;;;;10825965;32;20016;-75
2023/03/31 14:39:21;;;;;;;20.77;12.35;;;18.00;83.50;;;;;;10827765;33;20390;-75
2023/03/31 14:45:30;;;;;;;12.35;10.18;;;18.00;83.80;;;;;;10827133;33;20016;-75
2023/03/31 14:51:32;;;;;;;16.45;9.85;;;18.10;83.60;;;;;;10825536;33;20432;-75
2023/03/31 14:57:38;;;;;;;14.95;10.75;;;17.90;83.20;;;;;;10826727;33;20013;-75
2023/03/31 15:03:42;;;;;;;14.10;11.75;;;17.80;83.50;;;;;;10825931;33;20044;-75
2023/03/31 15:09:52;;;;;;;20.23;14.15;;;17.80;83.40;;;;;;10825222;33;20016;-75
2023/03/31 15:15:54;;;;;;;16.02;10.48;;;17.60;83.00;;;;;;10825381;33;20028;-75
2023/03/31 15:22:10;;;;;;;17.23;15.05;;;17.50;83.90;;;;;;10821801;33;20015;-76
2023/03/31 15:28:16;;;;;;;16.20;11.73;;;17.50;83.30;;;;;;10823968;32;20090;-76
2023/03/31 15:34:28;;;;;;;22.42;11.77;;;17.40;83.50;;;;;;10821293;33;20024;-76
2023/03/31 15:40:42;;;;;;;16.85;11.07;;;17.50;83.80;;;;;;10824900;32;20039;-76
2023/03/31 15:46:56;;;;;;;17.67;9.75;;;17.60;84.10;;;;;;10825586;33;20024;-76
2023/03/31 15:53:00;;;;;;;14.25;8.07;;;17.70;84.40;;;;;;10557913;27;7288267;-76
2023/03/31 15:59:04;;;;;;;15.45;9.02;;;17.70;84.40;;;;;;10750467;33;20046;-76
2023/03/31 16:05:20;;;;;;;27.23;11.27;;;17.60;84.40;;;;;;10751565;33;20017;-76
2023/03/31 16:11:39;;;;;;;13.98;7.80;;;17.60;84.40;;;;;;10745033;33;20063;-75
2023/03/31 16:17:49;;;;;;;7.90;5.95;;;17.70;84.80;;;;;;10749276;33;20051;-75
2023/03/31 16:23:56;;;;;;;10.43;7.00;;;17.70;84.70;;;;;;10751401;33;20021;-76
2023/03/31 16:30:16;;;;;;;9.05;6.47;;;17.70;85.00;;;;;;10750954;33;20398;-76
2023/03/31 16:36:19;;;;;;;17.85;8.05;;;17.50;84.80;;;;;;10747533;33;20322;-76
2023/03/31 16:42:21;;;;;;;8.38;5.95;;;17.40;85.10;;;;;;10750780;33;20028;-75
2023/03/31 16:48:27;;;;;;;6.50;4.10;;;17.30;85.10;;;;;;10723471;33;20045;-75
2023/03/31 16:54:29;;;;;;;13.85;5.97;;;17.30;85.20;;;;;;10715235;33;20056;-75
2023/03/31 17:00:34;;;;;;;6.25;4.55;;;17.40;84.80;;;;;;10720054;33;20064;-76
2023/03/31 17:06:37;;;;;;;7.03;5.00;;;17.40;84.70;;;;;;10721041;33;20311;-76
2023/03/31 17:12:40;;;;;;;10.32;5.45;;;17.30;84.50;;;;;;10719096;33;20051;-76
2023/03/31 17:18:42;;;;;;;9.75;6.45;;;17.20;85.00;;;;;;10744891;33;20032;-76
2023/03/31 17:24:44;;;;;;;12.32;6.57;;;17.20;85.10;;;;;;10754973;33;20025;-76
2023/03/31 17:30:49;;;;;;;9.52;5.78;;;17.20;85.40;;;;;;10756111;33;20024;-75
2023/03/31 17:36:53;;;;;;;10.38;7.45;;;17.30;85.40;;;;;;10754753;33;20346;-75
2023/03/31 17:42:57;;;;;;;12.93;6.62;;;17.30;85.30;;;;;;10755210;33;20024;-75
2023/03/31 17:49:00;;;;;;;7.72;5.90;;;17.30;85.20;;;;;;10754565;33;20021;-75
2023/03/31 17:55:03;;;;;;;10.77;6.65;;;17.20;84.80;;;;;;10754605;33;20350;-75
2023/03/31 18:01:06;;;;;;;11.82;9.30;;;17.10;84.50;;;;;;10754132;33;20346;-76
2023/03/31 18:07:38;;;;;;;17.45;8.57;;;16.90;84.60;;;;;;10754294;33;20055;-76
2023/03/31 18:13:40;;;;;;;10.65;7.25;;;16.80;84.70;;;;;;10754023;33;20025;-75
2023/03/31 18:19:43;;;;;;;13.75;9.43;;;16.80;84.80;;;;;;10752665;33;20056;-75
2023/03/31 18:25:46;;;;;;;8.38;7.40;;;17.00;84.70;;;;;;10754058;33;20056;-76
2023/03/31 18:31:51;;;;;;;10.60;8.05;;;17.20;84.60;;;;;;10753877;33;20032;-76
2023/03/31 18:38:08;;;;;;;14.15;8.55;;;17.30;84.50;;;;;;10751170;33;20036;-76
2023/03/31 18:44:16;;;;;;;11.20;9.35;;;17.20;84.50;;;;;;10750033;33;20021;-76
2023/03/31 18:50:18;;;;;;;11.00;8.63;;;17.30;84.40;;;;;;10753069;33;20154;-75
2023/03/31 18:56:21;;;;;;;14.13;8.57;;;17.30;84.40;;;;;;10753090;33;20029;-76
2023/03/31 19:02:23;;;;;;;12.93;8.75;;;17.30;84.10;;;;;;10751900;33;20043;-76
2023/03/31 19:08:25;;;;;;;10.63;7.62;;;17.20;83.90;;;;;;10751414;33;20024;-76
2023/03/31 19:14:27;;;;;;;8.85;6.85;;;17.10;83.80;;;;;;10752271;33;20012;-76
2023/03/31 19:20:29;;;;;;;11.25;9.18;;;17.00;83.60;;;;;;10751127;33;20047;-75
2023/03/31 19:26:31;;;;;;;13.45;9.73;;;16.80;83.70;;;;;;10752356;33;20012;-76
2023/03/31 19:32:33;;;;;;;16.62;11.48;;;16.90;83.60;;;;;;10750931;33;20064;-76
2023/03/31 19:38:43;;;;;;;14.75;13.25;;;16.70;83.70;;;;;;10752248;33;20013;-76
2023/03/31 19:44:45;;;;;;;19.52;13.75;;;16.70;84.20;;;;;;10751013;33;20326;-76
2023/03/31 19:50:58;;;;;;;26.30;22.65;;;16.70;84.60;;;;;;10751642;33;20044;-76
2023/03/31 19:57:00;;;;;;;21.62;15.40;;;16.60;85.00;;;;;;10750805;32;20055;-76
2023/03/31 20:03:02;;;;;;;28.70;25.62;;;16.50;85.00;;;;;;10747706;33;20025;-76
2023/03/31 20:09:05;;;;;;;28.92;25.02;;;16.30;84.70;;;;;;10750487;33;20051;-76
2023/03/31 20:15:08;;;;;;;23.50;16.92;;;16.00;84.80;;;;;;10750747;33;20017;-75
2023/03/31 20:21:13;;;;;;;18.40;12.60;;;15.90;85.60;;;;;;10751159;33;20045;-76
2023/03/31 20:27:15;;;;;;;18.23;12.55;;;16.00;85.50;;;;;;10751199;33;20025;-76
2023/03/31 20:33:17;;;;;;;17.75;13.77;;;16.10;85.30;;;;;;10754135;33;20033;-76
2023/03/31 20:39:19;;;;;;;11.98;10.15;;;16.20;85.00;;;;;;10756710;33;20043;-76
2023/03/31 20:45:22;;;;;;;11.48;8.18;;;16.20;84.80;;;;;;10757176;33;20051;-75
2023/03/31 20:51:29;;;;;;;13.40;11.98;;;15.90;84.50;;;;;;10754633;33;20033;-75
2023/03/31 20:57:31;;;;;;;20.77;13.80;;;15.80;85.20;;;;;;10757726;33;20047;-76
2023/03/31 21:03:33;;;;;;;18.55;15.98;;;16.20;85.20;;;;;;10757004;33;20029;-76
2023/03/31 21:09:35;;;;;;;15.15;11.43;;;16.10;84.70;;;;;;10756846;33;20024;-75
2023/03/31 21:15:38;;;;;;;12.65;10.68;;;16.10;84.90;;;;;;10722585;33;20056;-76
2023/03/31 21:21:41;;;;;;;13.93;11.02;;;16.00;84.80;;;;;;10717714;33;20041;-75
2023/03/31 21:27:43;;;;;;;16.77;14.35;;;15.90;84.60;;;;;;10719979;33;20053;-74
2023/03/31 21:33:45;;;;;;;15.65;13.23;;;15.70;84.80;;;;;;10718524;33;20051;-75
2023/03/31 21:39:47;;;;;;;16.77;12.65;;;15.70;85.00;;;;;;10718751;33;20021;-76
2023/03/31 21:45:52;;;;;;;16.25;11.38;;;15.90;84.90;;;;;;10719469;33;20394;-76
2023/03/31 21:51:54;;;;;;;16.67;11.23;;;16.00;84.60;;;;;;10718461;33;20028;-75
2023/03/31 21:57:56;;;;;;;13.43;9.38;;;16.00;84.70;;;;;;10719260;33;20033;-75
2023/03/31 22:03:58;;;;;;;12.07;9.05;;;15.80;84.50;;;;;;10718978;33;20029;-75
2023/03/31 22:10:00;;;;;;;14.02;11.45;;;15.60;84.70;;;;;;10714404;33;20028;-75
2023/03/31 22:16:03;;;;;;;23.33;16.37;;;15.50;84.50;;;;;;10718653;33;20024;-76
2023/03/31 22:22:06;;;;;;;12.68;9.73;;;15.30;84.60;;;;;;10717330;33;20025;-75
2023/03/31 22:28:08;;;;;;;11.60;8.45;;;15.30;84.20;;;;;;10715670;33;20059;-75
2023/03/31 22:34:10;;;;;;;17.35;9.30;;;15.40;83.90;;;;;;10717453;33;20056;-75
2023/03/31 22:40:12;;;;;;;13.50;9.60;;;15.40;83.60;;;;;;10715403;33;20065;-75
2023/03/31 22:46:15;;;;;;;10.27;9.23;;;15.30;83.50;;;;;;10717189;33;20052;-75
2023/03/31 22:52:17;;;;;;;13.57;8.90;;;15.00;83.70;;;;;;10716135;33;20029;-75
2023/03/31 22:58:19;;;;;;;12.37;9.98;;;15.10;83.80;;;;;;10714903;33;20036;-75
2023/03/31 23:04:21;;;;;;;10.68;7.75;;;15.10;83.40;;;;;;10717391;33;20017;-75
2023/03/31 23:10:23;;;;;;;13.45;10.45;;;15.00;83.20;;;;;;10715333;33;20017;-75
2023/03/31 23:16:26;;;;;;;14.02;6.85;;;14.90;83.30;;;;;;10728204;33;20293;-75
2023/03/31 23:22:28;;;;;;;12.75;7.85;;;15.00;83.10;;;;;;10727420;33;20024;-75
2023/03/31 23:28:32;;;;;;;10.93;5.75;;;14.90;82.80;;;;;;10717458;33;20383;-75
2023/03/31 23:34:34;;;;;;;11.23;8.05;;;14.70;82.80;;;;;;10716461;33;20029;-75
2023/03/31 23:40:36;;;;;;;8.73;6.60;;;14.70;83.40;;;;;;10713778;33;20056;-75
2023/03/31 23:46:40;;;;;;;14.43;8.70;;;14.50;83.20;;;;;;10716179;33;20052;-75
2023/03/31 23:52:42;;;;;;;13.35;10.68;;;14.50;83.70;;;;;;10788425;27;20058;-75
2023/03/31 23:58:44;;;;;;;11.52;9.13;;;14.60;83.40;;;;;;10825497;33;20042;-75
